RU-0375 weather

Monino Airfield
Moscow, Moscow Oblast, Russia

Public forecast

Using degrees Celsius for public forecast. Weather courtesy of forecast.io.

Closest aviation weather report (METAR) to Monino Airfield

Closest report is Zhukovsky International Airport, 17.0 nm (31.5 km) S. Retrieved 2020/02/20 04:30 UTC (0 seconds ago):

UUBW 200430Z 25002MPS 200V280 CAVOK 02/M00 Q1015 R30/010060 NOSIG

Closest aviation forecast (TAF) to Monino Airfield

Closest forecast is Zhukovsky International Airport, 17.0 nm (31.5 km) S. Retrieved 2020-02-20 03:00 UTC (1 hour ago):

TAF UUBW 200154Z 2003/2103 23003G08MPS 9999 BKN016 TX05/2012Z TNM02/2103Z TEMPO 2003/2006 3100 BR FEW006